Time;durP1;ratioP1;P1;durP2;ratioP2;P2;SDS_P1;SDS_P2;PMS_P1;PMS_P2;Temp;Humidity;BMP_temperature;BMP_pressure;BME280_temperature;BME280_humidity;BME280_pressure;Samples;Min_cycle;Max_cycle;Signal;HPM_P1;HPM_P2
2023/04/24 00:00:12;;;;;;;3.03;2.00;;;9.20;99.90;;;;;;5078815;28;20205;-77
2023/04/24 00:02:39;;;;;;;2.83;2.50;;;9.20;99.90;;;;;;5075159;28;20284;-76
2023/04/24 00:05:07;;;;;;;3.27;2.00;;;9.20;99.90;;;;;;5075716;28;20197;-76
2023/04/24 00:07:35;;;;;;;2.30;2.03;;;9.10;99.90;;;;;;5075842;28;20232;-77
2023/04/24 00:10:02;;;;;;;2.40;1.97;;;9.10;99.90;;;;;;5075392;28;20730;-76
2023/04/24 00:12:28;;;;;;;4.30;2.20;;;9.10;99.90;;;;;;5075492;28;20477;-76
2023/04/24 00:14:55;;;;;;;2.77;1.80;;;9.00;99.90;;;;;;5075357;28;20197;-76
2023/04/24 00:17:22;;;;;;;3.03;2.00;;;9.00;99.90;;;;;;5075616;28;20610;-76
2023/04/24 00:19:50;;;;;;;5.10;2.27;;;9.00;99.90;;;;;;5075440;28;20201;-76
2023/04/24 00:22:18;;;;;;;3.00;2.00;;;9.10;99.90;;;;;;5075537;28;20197;-76
2023/04/24 00:24:46;;;;;;;2.73;1.93;;;9.00;99.90;;;;;;5075413;28;20600;-76
2023/04/24 00:27:12;;;;;;;2.10;1.63;;;9.00;99.90;;;;;;5075118;28;20251;-75
2023/04/24 00:29:39;;;;;;;2.30;2.00;;;9.00;99.90;;;;;;5075039;28;20717;-76
2023/04/24 00:32:05;;;;;;;2.33;2.10;;;9.00;99.90;;;;;;5075273;28;20201;-76
2023/04/24 00:34:32;;;;;;;1.87;1.63;;;9.00;99.90;;;;;;5075041;28;20255;-76
2023/04/24 00:36:59;;;;;;;2.03;1.80;;;9.00;99.90;;;;;;5075206;28;20521;-75
2023/04/24 00:39:26;;;;;;;2.27;1.57;;;8.90;99.90;;;;;;5075001;28;20201;-75
2023/04/24 00:41:55;;;;;;;1.97;1.80;;;8.90;99.90;;;;;;5075051;28;20679;-75
2023/04/24 00:44:22;;;;;;;2.20;1.80;;;8.90;99.90;;;;;;5075044;28;20204;-75
2023/04/24 00:46:51;;;;;;;2.13;1.70;;;8.90;99.90;;;;;;5074753;28;20657;-75
2023/04/24 00:49:18;;;;;;;2.80;1.67;;;9.00;99.90;;;;;;5074983;28;20208;-75
2023/04/24 00:51:45;;;;;;;2.20;1.90;;;9.00;99.90;;;;;;5074796;28;20224;-75
2023/04/24 00:54:13;;;;;;;3.60;1.60;;;8.90;99.90;;;;;;5074824;28;20201;-75
2023/04/24 00:56:40;;;;;;;1.70;1.60;;;8.90;99.90;;;;;;5074815;28;20254;-75
2023/04/24 00:59:09;;;;;;;2.37;1.53;;;8.90;99.90;;;;;;5074863;28;20211;-75
2023/04/24 01:01:36;;;;;;;1.67;1.57;;;8.90;99.90;;;;;;5074690;28;20201;-75
2023/04/24 01:04:03;;;;;;;3.10;1.70;;;8.90;99.90;;;;;;5074479;28;20619;-74
2023/04/24 01:06:31;;;;;;;2.70;1.50;;;8.90;99.90;;;;;;5074471;28;20201;-75
2023/04/24 01:08:59;;;;;;;3.40;1.73;;;9.00;99.90;;;;;;5074061;28;20565;-75
2023/04/24 01:11:26;;;;;;;1.90;1.40;;;9.00;99.90;;;;;;5074526;28;20271;-75
2023/04/24 01:13:52;;;;;;;4.30;1.53;;;9.10;99.90;;;;;;5074495;28;20200;-74
2023/04/24 01:16:21;;;;;;;1.63;1.53;;;9.10;99.90;;;;;;5074573;28;20254;-74
2023/04/24 01:18:48;;;;;;;3.43;1.50;;;9.10;99.90;;;;;;5074230;28;20228;-75
2023/04/24 01:21:16;;;;;;;2.60;1.43;;;9.10;99.90;;;;;;5074062;28;20711;-74
2023/04/24 01:23:45;;;;;;;2.53;1.67;;;9.10;99.90;;;;;;5074344;28;20197;-74
2023/04/24 01:26:12;;;;;;;2.50;1.40;;;9.10;99.90;;;;;;5074308;28;20209;-75
2023/04/24 01:28:39;;;;;;;2.53;1.63;;;9.00;99.90;;;;;;5074019;28;20714;-75
2023/04/24 01:31:06;;;;;;;1.97;1.60;;;9.10;99.90;;;;;;5073913;28;20255;-74
2023/04/24 01:33:34;;;;;;;1.87;1.50;;;9.10;99.90;;;;;;5074152;28;20204;-74
2023/04/24 01:36:00;;;;;;;2.53;1.50;;;9.10;99.90;;;;;;5073633;28;20232;-74
2023/04/24 01:38:27;;;;;;;1.70;1.40;;;9.20;99.90;;;;;;5074038;28;20250;-74
2023/04/24 01:40:55;;;;;;;3.67;1.57;;;9.10;99.90;;;;;;5073885;28;20197;-74
2023/04/24 01:43:22;;;;;;;3.17;1.50;;;9.10;99.90;;;;;;5073902;28;20200;-74
2023/04/24 01:45:49;;;;;;;3.10;1.70;;;9.20;99.90;;;;;;5073801;28;20242;-74
2023/04/24 01:48:16;;;;;;;2.80;1.63;;;9.20;99.90;;;;;;5074283;28;20200;-75
2023/04/24 01:50:42;;;;;;;2.97;2.43;;;9.20;99.90;;;;;;5073494;28;20221;-74
2023/04/24 01:53:09;;;;;;;3.10;2.00;;;9.20;99.90;;;;;;5073746;28;20197;-75
2023/04/24 01:55:36;;;;;;;3.70;2.50;;;9.20;99.90;;;;;;5073698;28;20193;-75
2023/04/24 01:58:04;;;;;;;2.70;1.50;;;9.20;99.90;;;;;;5073785;28;20247;-75
2023/04/24 02:00:31;;;;;;;3.23;1.80;;;9.20;99.90;;;;;;5073501;28;20200;-75
2023/04/24 02:02:57;;;;;;;3.13;1.60;;;9.10;99.90;;;;;;5073384;28;20197;-75
2023/04/24 02:05:24;;;;;;;2.50;1.97;;;9.10;99.90;;;;;;5073561;28;20197;-75
2023/04/24 02:07:51;;;;;;;3.47;1.70;;;9.10;99.90;;;;;;5073552;28;20205;-75
2023/04/24 02:10:17;;;;;;;2.57;1.70;;;9.10;99.90;;;;;;5073475;28;20221;-75
2023/04/24 02:12:44;;;;;;;1.70;1.60;;;9.10;99.90;;;;;;5073392;28;20197;-75
2023/04/24 02:15:12;;;;;;;1.80;1.60;;;9.00;99.90;;;;;;5073335;28;20201;-75
2023/04/24 02:17:39;;;;;;;2.70;1.60;;;9.00;99.90;;;;;;5073118;28;20200;-74
2023/04/24 02:20:07;;;;;;;2.43;1.70;;;9.00;99.90;;;;;;5073273;28;20595;-74
2023/04/24 02:22:34;;;;;;;3.83;1.60;;;9.00;99.90;;;;;;5073249;28;20193;-75
2023/04/24 02:25:01;;;;;;;1.60;1.50;;;8.90;99.90;;;;;;5072697;28;20240;-75
2023/04/24 02:27:28;;;;;;;2.00;1.80;;;9.00;99.90;;;;;;5073135;28;20224;-75
2023/04/24 02:29:55;;;;;;;3.60;1.90;;;9.00;99.90;;;;;;5073000;28;20254;-75
2023/04/24 02:32:23;;;;;;;2.13;1.60;;;9.00;99.90;;;;;;5072833;28;20228;-74
2023/04/24 02:34:50;;;;;;;1.90;1.70;;;9.00;99.90;;;;;;5073043;28;20420;-74
2023/04/24 02:37:16;;;;;;;3.03;1.70;;;8.90;99.90;;;;;;5073038;28;20564;-75
2023/04/24 02:39:43;;;;;;;2.13;1.80;;;8.90;99.90;;;;;;5072984;28;20201;-75
2023/04/24 02:42:10;;;;;;;2.50;1.70;;;8.90;99.90;;;;;;5072941;28;20197;-75
2023/04/24 02:44:37;;;;;;;2.47;1.70;;;8.90;99.90;;;;;;5072972;28;20201;-74
2023/04/24 02:47:03;;;;;;;2.60;1.70;;;8.90;99.90;;;;;;5072841;28;20205;-75
2023/04/24 02:49:31;;;;;;;2.27;1.70;;;8.90;99.90;;;;;;5073373;28;20473;-75
2023/04/24 02:51:58;;;;;;;2.27;1.60;;;9.00;99.90;;;;;;5072589;28;20562;-76
2023/04/24 02:54:25;;;;;;;1.87;1.63;;;9.00;99.90;;;;;;5072864;28;20230;-76
2023/04/24 02:56:51;;;;;;;3.47;1.50;;;8.90;99.90;;;;;;5072780;28;20205;-76
2023/04/24 02:59:18;;;;;;;2.27;1.80;;;8.90;99.90;;;;;;5072647;28;20197;-77
2023/04/24 03:01:45;;;;;;;3.40;1.60;;;8.90;99.90;;;;;;5072869;28;20231;-75
2023/04/24 03:04:11;;;;;;;2.80;1.57;;;8.90;99.90;;;;;;5072905;28;20197;-75
2023/04/24 03:06:39;;;;;;;2.43;2.00;;;8.90;99.90;;;;;;5072801;28;20615;-75
2023/04/24 03:09:06;;;;;;;4.00;2.37;;;8.90;99.90;;;;;;5072794;28;20201;-75
2023/04/24 03:11:32;;;;;;;3.07;1.83;;;8.90;99.90;;;;;;5072531;28;20221;-75
2023/04/24 03:13:59;;;;;;;15.37;8.67;;;9.00;99.90;;;;;;5072556;28;20653;-75
2023/04/24 03:16:25;;;;;;;3.07;2.70;;;9.00;99.90;;;;;;5072762;28;20197;-75
2023/04/24 03:18:52;;;;;;;4.33;2.10;;;9.00;99.90;;;;;;5072664;28;20251;-75
2023/04/24 03:21:19;;;;;;;3.93;2.87;;;9.00;99.90;;;;;;5072799;28;20197;-75
2023/04/24 03:23:47;;;;;;;3.30;2.23;;;9.00;99.90;;;;;;5072566;28;20205;-76
2023/04/24 03:26:13;;;;;;;2.13;1.90;;;8.90;99.90;;;;;;5072568;28;20251;-75
2023/04/24 03:28:40;;;;;;;4.43;2.43;;;8.90;99.90;;;;;;5072713;28;20231;-75
2023/04/24 03:31:07;;;;;;;3.60;2.30;;;8.90;99.90;;;;;;5072500;28;20220;-75
2023/04/24 03:33:33;;;;;;;4.73;3.13;;;8.80;99.90;;;;;;5072513;28;20205;-75
2023/04/24 03:36:00;;;;;;;4.33;3.00;;;8.80;99.90;;;;;;5072315;28;20282;-76
2023/04/24 03:38:27;;;;;;;3.30;2.40;;;8.90;99.90;;;;;;5076547;28;20201;-75
2023/04/24 03:40:55;;;;;;;3.93;2.67;;;9.00;99.90;;;;;;5075991;28;20201;-76
2023/04/24 03:43:21;;;;;;;4.27;2.60;;;8.90;99.90;;;;;;5076218;28;20197;-75
2023/04/24 03:45:48;;;;;;;7.37;2.63;;;9.00;99.90;;;;;;5076216;28;20201;-75
2023/04/24 03:48:14;;;;;;;4.03;2.17;;;9.00;99.90;;;;;;5076147;28;20656;-76
2023/04/24 03:50:41;;;;;;;2.30;2.10;;;9.00;99.90;;;;;;5075839;28;20823;-75
2023/04/24 03:53:08;;;;;;;6.27;4.67;;;8.90;99.90;;;;;;5075977;28;20603;-75
2023/04/24 03:55:35;;;;;;;3.73;2.50;;;9.00;99.90;;;;;;5075737;28;20251;-74
2023/04/24 03:58:03;;;;;;;4.00;2.40;;;9.00;99.90;;;;;;5075957;28;20201;-75
2023/04/24 04:00:32;;;;;;;4.03;2.20;;;9.00;99.90;;;;;;5075654;28;20661;-75
2023/04/24 04:02:59;;;;;;;2.63;2.30;;;8.90;99.90;;;;;;5075782;28;20203;-75
2023/04/24 04:05:26;;;;;;;3.17;2.77;;;8.90;99.90;;;;;;5075595;28;20200;-75
2023/04/24 04:07:52;;;;;;;3.87;3.47;;;9.00;99.90;;;;;;5075508;28;20664;-75
2023/04/24 04:10:19;;;;;;;4.63;2.60;;;9.00;99.90;;;;;;5075413;28;20197;-75
2023/04/24 04:12:46;;;;;;;3.50;2.57;;;9.00;99.90;;;;;;5075524;28;20278;-75
2023/04/24 04:15:14;;;;;;;3.93;2.40;;;9.00;99.90;;;;;;5075538;28;20201;-75
2023/04/24 04:17:40;;;;;;;6.13;3.40;;;9.00;99.90;;;;;;5075530;28;20200;-75
2023/04/24 04:20:09;;;;;;;5.80;2.90;;;9.00;99.90;;;;;;5075456;28;20193;-75
2023/04/24 04:22:36;;;;;;;5.43;3.33;;;9.00;99.90;;;;;;5075252;28;20203;-75
2023/04/24 04:25:03;;;;;;;2.90;2.07;;;9.00;99.90;;;;;;5075484;28;20254;-75
2023/04/24 04:27:31;;;;;;;3.63;2.50;;;9.00;99.90;;;;;;5075536;28;20279;-75
2023/04/24 04:29:59;;;;;;;5.70;2.07;;;9.00;99.90;;;;;;5075316;28;20300;-75
2023/04/24 04:32:27;;;;;;;3.93;2.43;;;9.00;99.90;;;;;;5075178;28;20232;-76
2023/04/24 04:34:54;;;;;;;4.30;2.40;;;9.00;99.90;;;;;;5074900;28;20765;-75
2023/04/24 04:37:20;;;;;;;5.97;2.97;;;9.00;99.90;;;;;;5075102;28;20205;-74
2023/04/24 04:39:48;;;;;;;2.63;2.30;;;8.90;99.90;;;;;;5075270;28;20207;-74
2023/04/24 04:42:15;;;;;;;2.97;2.47;;;8.90;99.90;;;;;;5075138;28;20193;-74
2023/04/24 04:44:42;;;;;;;2.87;2.57;;;8.90;99.90;;;;;;5075048;28;20196;-75
2023/04/24 04:47:10;;;;;;;4.37;2.73;;;9.00;99.90;;;;;;5074748;28;20479;-76
2023/04/24 04:49:38;;;;;;;4.10;2.70;;;8.90;99.90;;;;;;5074960;28;20197;-74
2023/04/24 04:52:05;;;;;;;4.30;2.40;;;9.00;99.90;;;;;;5074617;28;20224;-74
2023/04/24 04:54:31;;;;;;;4.07;3.67;;;9.00;99.90;;;;;;5074911;28;20196;-75
2023/04/24 04:56:58;;;;;;;2.70;2.50;;;9.00;99.90;;;;;;5074682;28;20599;-75
2023/04/24 04:59:25;;;;;;;3.67;2.50;;;9.00;99.90;;;;;;5074680;28;20288;-75
2023/04/24 05:01:51;;;;;;;2.73;2.30;;;9.10;99.90;;;;;;5074566;28;20261;-76
2023/04/24 05:04:18;;;;;;;2.83;2.13;;;9.10;99.90;;;;;;5074454;28;20201;-76
2023/04/24 05:06:47;;;;;;;3.90;2.50;;;9.20;99.90;;;;;;5074735;28;20205;-75
2023/04/24 05:09:13;;;;;;;5.67;2.93;;;9.20;99.90;;;;;;5074521;28;20219;-75
2023/04/24 05:11:40;;;;;;;5.20;2.20;;;9.20;99.90;;;;;;5074225;28;20558;-76
2023/04/24 05:14:06;;;;;;;3.17;2.60;;;9.20;99.90;;;;;;5074450;28;20201;-75
2023/04/24 05:16:33;;;;;;;3.13;2.27;;;9.30;99.90;;;;;;5074355;28;20713;-75
2023/04/24 05:19:00;;;;;;;3.73;2.60;;;9.30;99.90;;;;;;5074175;28;20197;-75
2023/04/24 05:21:26;;;;;;;4.20;2.90;;;9.40;99.90;;;;;;5074360;28;20204;-75
2023/04/24 05:23:54;;;;;;;6.40;4.37;;;9.40;99.90;;;;;;5074222;28;20607;-75
2023/04/24 05:26:22;;;;;;;5.47;4.93;;;9.40;99.90;;;;;;5074179;28;20602;-75
2023/04/24 05:28:49;;;;;;;4.13;2.70;;;9.40;99.90;;;;;;5073922;28;20747;-75
2023/04/24 05:31:17;;;;;;;9.87;5.70;;;9.40;99.90;;;;;;5073734;28;20196;-77
2023/04/24 05:33:44;;;;;;;5.23;3.93;;;9.40;99.90;;;;;;5074162;28;20229;-76
2023/04/24 05:36:10;;;;;;;2.30;2.10;;;9.50;99.90;;;;;;5073741;28;20233;-76
2023/04/24 05:38:37;;;;;;;2.40;2.10;;;9.60;99.90;;;;;;5074009;28;20250;-75
2023/04/24 05:41:05;;;;;;;6.00;5.40;;;9.60;99.90;;;;;;5073861;28;20680;-74
2023/04/24 05:43:32;;;;;;;2.63;2.30;;;9.60;99.90;;;;;;5073762;28;20201;-75
2023/04/24 05:45:58;;;;;;;3.30;3.00;;;9.60;99.90;;;;;;5073652;28;20250;-75
2023/04/24 05:48:25;;;;;;;3.30;2.00;;;9.70;99.90;;;;;;5073899;28;20288;-76
2023/04/24 05:50:52;;;;;;;2.70;1.97;;;9.70;99.90;;;;;;5073717;28;20197;-76
2023/04/24 05:53:19;;;;;;;2.43;1.63;;;9.70;99.90;;;;;;5073511;28;20221;-75
2023/04/24 05:55:46;;;;;;;3.03;1.53;;;9.80;99.90;;;;;;5073591;28;20599;-75
2023/04/24 05:58:15;;;;;;;3.40;1.60;;;9.80;99.90;;;;;;5073666;28;20247;-78
2023/04/24 06:00:44;;;;;;;3.40;1.67;;;9.80;99.90;;;;;;5072713;28;20204;-76
2023/04/24 06:03:11;;;;;;;4.00;1.80;;;9.80;99.90;;;;;;5073323;28;20201;-77
2023/04/24 06:05:37;;;;;;;1.80;1.60;;;9.70;99.90;;;;;;5073231;28;20205;-76
2023/04/24 06:08:04;;;;;;;2.57;1.40;;;9.70;99.90;;;;;;5073061;28;20603;-75
2023/04/24 06:10:31;;;;;;;1.70;1.60;;;9.70;99.90;;;;;;5073313;28;20243;-76
2023/04/24 06:13:00;;;;;;;1.63;1.20;;;9.60;99.90;;;;;;5073246;28;20225;-75
2023/04/24 06:15:30;;;;;;;2.03;1.30;;;9.50;99.90;;;;;;5073411;28;20224;-75
2023/04/24 06:17:56;;;;;;;2.20;1.60;;;9.50;99.90;;;;;;5073189;28;20193;-74
2023/04/24 06:20:23;;;;;;;1.03;1.00;;;9.60;99.90;;;;;;5073352;28;20204;-74
2023/04/24 06:22:50;;;;;;;1.17;1.07;;;9.60;99.90;;;;;;5073198;28;20197;-75
2023/04/24 06:25:17;;;;;;;1.00;0.90;;;9.50;99.90;;;;;;5073128;28;20212;-76
2023/04/24 06:27:43;;;;;;;0.97;0.90;;;9.50;99.90;;;;;;5073000;28;20205;-76
2023/04/24 06:30:11;;;;;;;3.50;1.13;;;9.50;99.90;;;;;;5072945;28;20648;-74
2023/04/24 06:32:39;;;;;;;1.17;1.07;;;9.60;99.90;;;;;;5073121;28;20278;-76
2023/04/24 06:35:07;;;;;;;1.57;1.17;;;9.60;99.90;;;;;;5073099;28;20278;-75
2023/04/24 06:37:34;;;;;;;3.77;1.20;;;9.80;99.90;;;;;;5073018;28;20201;-75
2023/04/24 06:40:01;;;;;;;3.43;1.67;;;9.80;99.90;;;;;;5073008;28;20330;-75
2023/04/24 06:42:27;;;;;;;2.20;2.00;;;10.10;99.90;;;;;;5073276;28;20231;-75
2023/04/24 06:44:54;;;;;;;2.90;1.80;;;10.10;99.90;;;;;;5073249;28;20250;-75
2023/04/24 06:47:20;;;;;;;2.80;1.90;;;10.10;99.90;;;;;;5073205;28;20269;-75
2023/04/24 06:49:50;;;;;;;2.60;2.20;;;10.00;99.90;;;;;;5073049;28;20197;-75
2023/04/24 06:52:17;;;;;;;2.23;1.90;;;10.00;99.90;;;;;;5072736;28;20216;-75
2023/04/24 06:54:44;;;;;;;2.30;2.10;;;9.90;99.90;;;;;;5072712;28;20204;-75
2023/04/24 06:57:11;;;;;;;2.67;2.40;;;10.00;99.90;;;;;;5072979;28;20197;-75
2023/04/24 06:59:37;;;;;;;2.47;2.13;;;10.00;99.90;;;;;;5072730;28;20197;-75
2023/04/24 07:02:05;;;;;;;3.73;2.30;;;9.90;99.90;;;;;;5072822;28;20250;-75
2023/04/24 07:04:31;;;;;;;5.90;2.90;;;9.80;99.90;;;;;;5072693;28;20197;-75
2023/04/24 07:06:59;;;;;;;2.93;2.60;;;9.80;99.90;;;;;;5072632;28;20262;-74
2023/04/24 07:09:27;;;;;;;3.10;2.40;;;9.80;99.90;;;;;;5072595;28;20521;-74
2023/04/24 07:11:56;;;;;;;3.10;2.70;;;9.90;99.90;;;;;;5075717;28;20315;-75
2023/04/24 07:14:23;;;;;;;3.37;3.07;;;9.90;99.90;;;;;;5076779;28;20273;-76
2023/04/24 07:16:49;;;;;;;3.20;2.90;;;10.20;99.90;;;;;;5076795;28;20610;-75
2023/04/24 07:19:16;;;;;;;5.13;3.10;;;10.10;99.90;;;;;;5076564;28;20541;-74
2023/04/24 07:21:43;;;;;;;5.07;3.30;;;10.10;99.90;;;;;;5076489;28;20386;-74
2023/04/24 07:24:12;;;;;;;4.43;3.60;;;10.00;99.90;;;;;;5076412;28;20251;-74
2023/04/24 07:26:39;;;;;;;4.93;3.90;;;10.10;99.90;;;;;;5076672;28;20250;-74
2023/04/24 07:29:06;;;;;;;4.53;3.63;;;10.00;99.90;;;;;;5076492;28;20204;-74
2023/04/24 07:31:33;;;;;;;4.17;3.77;;;9.90;99.90;;;;;;5076404;28;20390;-74
2023/04/24 07:34:00;;;;;;;4.73;3.73;;;9.90;99.90;;;;;;5076256;28;20225;-75
2023/04/24 07:36:27;;;;;;;5.87;3.60;;;9.90;99.90;;;;;;5076012;28;20225;-74
2023/04/24 07:38:56;;;;;;;8.90;3.63;;;9.90;99.90;;;;;;5076081;28;20201;-74
2023/04/24 07:41:24;;;;;;;4.10;3.80;;;9.90;99.90;;;;;;5076247;28;20197;-74
2023/04/24 07:43:52;;;;;;;4.57;3.80;;;9.90;99.90;;;;;;5076207;28;20211;-74
2023/04/24 07:46:19;;;;;;;4.33;3.87;;;9.90;99.90;;;;;;5076130;28;20203;-75
2023/04/24 07:48:47;;;;;;;3.70;3.40;;;10.00;99.90;;;;;;5077155;28;20652;-75
2023/04/24 07:51:14;;;;;;;5.27;4.07;;;10.00;99.90;;;;;;5076257;28;20197;-73
2023/04/24 07:53:41;;;;;;;7.67;4.00;;;10.10;99.90;;;;;;5076117;28;20221;-74
2023/04/24 07:56:07;;;;;;;4.10;3.70;;;10.30;99.90;;;;;;5075938;28;20193;-73
2023/04/24 07:58:36;;;;;;;4.40;3.60;;;10.70;99.90;;;;;;5075724;28;20725;-74
2023/04/24 08:01:02;;;;;;;5.27;3.93;;;10.80;99.90;;;;;;5075832;28;20197;-75
2023/04/24 08:03:29;;;;;;;5.67;3.60;;;10.60;99.90;;;;;;5075555;28;20583;-74
2023/04/24 08:05:56;;;;;;;5.77;4.20;;;10.50;99.90;;;;;;5075854;28;20605;-74
2023/04/24 08:08:23;;;;;;;5.50;4.07;;;10.10;99.90;;;;;;5075746;28;20266;-73
2023/04/24 08:10:50;;;;;;;6.03;4.00;;;10.10;99.90;;;;;;5075708;28;20595;-74
2023/04/24 08:13:17;;;;;;;4.67;4.17;;;10.00;99.90;;;;;;5075470;28;20225;-74
2023/04/24 08:15:45;;;;;;;4.43;4.03;;;10.20;99.90;;;;;;5075379;28;20825;-75
2023/04/24 08:18:13;;;;;;;4.80;3.77;;;10.40;99.90;;;;;;5075443;28;20289;-74
2023/04/24 08:20:39;;;;;;;6.93;3.70;;;10.50;99.90;;;;;;5075594;28;20284;-74
2023/04/24 08:23:06;;;;;;;4.50;3.43;;;10.50;99.90;;;;;;5074650;28;20197;-74
2023/04/24 08:25:35;;;;;;;3.93;3.53;;;10.20;99.90;;;;;;5075411;28;20234;-74
2023/04/24 08:28:02;;;;;;;4.10;3.70;;;10.20;99.90;;;;;;5075193;28;20232;-74
2023/04/24 08:30:29;;;;;;;4.03;3.30;;;10.50;99.90;;;;;;5075258;28;20197;-74
2023/04/24 08:32:57;;;;;;;3.60;3.30;;;10.90;99.90;;;;;;5075279;28;20224;-75
2023/04/24 08:35:24;;;;;;;4.77;2.90;;;10.90;99.90;;;;;;5075284;28;20708;-74
2023/04/24 08:37:51;;;;;;;4.00;3.20;;;10.90;99.90;;;;;;5075593;28;20197;-74
2023/04/24 08:40:18;;;;;;;3.60;3.17;;;10.80;99.90;;;;;;5075231;28;20223;-74
2023/04/24 08:42:45;;;;;;;4.03;3.50;;;10.80;99.90;;;;;;5075055;28;20262;-75
2023/04/24 08:45:13;;;;;;;5.03;3.43;;;11.00;99.90;;;;;;5074825;28;20201;-75
2023/04/24 08:47:41;;;;;;;4.27;3.07;;;11.30;99.90;;;;;;5075073;28;20219;-74
2023/04/24 08:50:10;;;;;;;3.60;3.00;;;11.40;99.90;;;;;;5074996;28;20197;-74
2023/04/24 08:52:37;;;;;;;3.77;2.90;;;11.60;99.90;;;;;;5074521;28;20631;-74
2023/04/24 08:55:04;;;;;;;3.07;2.80;;;12.30;99.90;;;;;;5074778;28;20198;-74
2023/04/24 08:57:33;;;;;;;3.43;2.87;;;12.10;99.90;;;;;;5074695;28;20197;-74
2023/04/24 09:00:00;;;;;;;4.83;3.10;;;12.00;99.90;;;;;;5074582;28;20598;-74
2023/04/24 09:02:27;;;;;;;4.43;2.90;;;11.50;99.90;;;;;;5074756;28;20200;-74
2023/04/24 09:04:54;;;;;;;6.90;2.93;;;11.20;99.90;;;;;;5074955;28;20197;-75
2023/04/24 09:07:25;;;;;;;3.47;2.70;;;11.40;99.90;;;;;;5075430;28;20341;-74
2023/04/24 09:09:52;;;;;;;4.90;2.43;;;11.40;99.90;;;;;;5074489;28;20698;-75
2023/04/24 09:12:19;;;;;;;5.17;2.70;;;11.20;99.90;;;;;;5074222;28;20197;-74
2023/04/24 09:14:46;;;;;;;3.00;2.70;;;11.60;99.90;;;;;;5074294;28;20637;-73
2023/04/24 09:17:13;;;;;;;5.23;2.20;;;11.60;99.90;;;;;;5074194;28;20196;-73
2023/04/24 09:19:39;;;;;;;2.93;2.20;;;11.60;99.90;;;;;;5074283;28;20196;-74
2023/04/24 09:22:07;;;;;;;3.57;2.40;;;11.70;99.90;;;;;;5074100;28;20197;-74
2023/04/24 09:24:35;;;;;;;2.57;2.37;;;11.70;99.90;;;;;;5074079;28;20238;-74
2023/04/24 09:27:03;;;;;;;2.87;2.20;;;11.80;99.90;;;;;;5073999;28;20676;-73
2023/04/24 09:29:31;;;;;;;2.83;2.20;;;11.60;99.90;;;;;;5074173;28;20246;-73
2023/04/24 09:31:58;;;;;;;3.37;2.37;;;11.90;99.90;;;;;;5074284;28;20197;-74
2023/04/24 09:34:26;;;;;;;3.70;2.17;;;12.30;99.90;;;;;;5073610;28;20749;-73
2023/04/24 09:36:54;;;;;;;3.80;2.10;;;12.20;99.90;;;;;;5074188;28;20204;-73
2023/04/24 09:39:21;;;;;;;2.43;1.90;;;12.10;99.90;;;;;;5073760;28;20232;-73
2023/04/24 09:41:50;;;;;;;5.00;1.97;;;12.20;99.90;;;;;;5073891;28;20255;-73
2023/04/24 09:44:19;;;;;;;2.00;1.90;;;12.70;99.90;;;;;;5073909;28;20741;-72
2023/04/24 09:46:50;;;;;;;2.90;2.20;;;12.70;99.90;;;;;;5073680;28;20247;-73
2023/04/24 09:49:23;;;;;;;2.83;1.97;;;13.00;99.90;;;;;;5073587;28;20657;-73
2023/04/24 09:51:49;;;;;;;4.00;2.30;;;13.40;99.90;;;;;;5073555;28;20254;-73
2023/04/24 09:54:18;;;;;;;2.10;1.90;;;13.10;99.90;;;;;;5073587;28;20224;-73
2023/04/24 09:56:46;;;;;;;2.23;2.00;;;12.40;99.90;;;;;;5073443;28;20615;-73
2023/04/24 09:59:14;;;;;;;3.50;1.80;;;12.20;99.90;;;;;;5073523;28;20197;-73
2023/04/24 10:01:44;;;;;;;2.50;2.00;;;12.70;99.90;;;;;;5073359;28;20274;-73
2023/04/24 10:04:17;;;;;;;2.30;2.10;;;12.30;99.90;;;;;;5073303;28;20200;-73
2023/04/24 10:06:44;;;;;;;2.73;1.80;;;12.70;99.90;;;;;;5073554;28;20284;-74
2023/04/24 10:09:12;;;;;;;1.90;1.70;;;13.10;99.90;;;;;;5073618;28;20198;-73
2023/04/24 10:11:42;;;;;;;4.27;1.83;;;12.90;99.90;;;;;;5073528;28;20193;-74
2023/04/24 10:14:11;;;;;;;1.70;1.60;;;13.50;99.90;;;;;;5073168;28;20225;-72
2023/04/24 10:16:41;;;;;;;4.90;1.60;;;13.30;99.90;;;;;;5073100;28;20197;-73
2023/04/24 10:19:08;;;;;;;1.90;1.60;;;13.30;99.90;;;;;;5073527;28;20193;-73
2023/04/24 10:21:35;;;;;;;3.97;1.70;;;13.00;99.90;;;;;;5073033;28;20656;-74
2023/04/24 10:24:03;;;;;;;3.63;2.07;;;13.00;99.90;;;;;;5073183;28;20197;-73
2023/04/24 10:26:30;;;;;;;3.20;1.90;;;12.20;99.90;;;;;;5073069;28;20193;-73
2023/04/24 10:28:59;;;;;;;7.03;2.00;;;11.30;99.90;;;;;;5072928;28;20246;-74
2023/04/24 10:31:26;;;;;;;4.00;2.37;;;11.20;99.90;;;;;;5072768;28;20204;-73
2023/04/24 10:33:56;;;;;;;3.13;2.50;;;11.20;99.90;;;;;;5073002;28;20696;-71
2023/04/24 10:36:26;;;;;;;2.73;2.30;;;11.00;99.90;;;;;;5073021;28;20233;-74
2023/04/24 10:38:55;;;;;;;2.80;1.50;;;11.10;99.90;;;;;;5072728;28;20200;-75
2023/04/24 10:41:26;;;;;;;1.87;1.60;;;11.40;99.90;;;;;;5072728;28;20200;-74
2023/04/24 10:44:06;;;;;;;1.53;1.40;;;11.40;99.90;;;;;;5072883;28;20196;-74
2023/04/24 10:46:33;;;;;;;3.87;1.67;;;11.70;99.90;;;;;;5072494;28;20201;-75
2023/04/24 10:49:06;;;;;;;1.60;1.50;;;11.60;99.90;;;;;;5072867;28;20219;-74
2023/04/24 10:51:46;;;;;;;1.57;1.47;;;12.10;99.90;;;;;;5072829;28;20573;-74
2023/04/24 10:54:27;;;;;;;2.90;1.60;;;12.00;99.90;;;;;;5072678;28;20235;-74
2023/04/24 10:56:54;;;;;;;1.57;1.30;;;11.70;99.90;;;;;;5073091;28;20196;-74
2023/04/24 10:59:28;;;;;;;1.40;1.30;;;12.10;99.90;;;;;;5072722;28;20193;-74
2023/04/24 11:01:56;;;;;;;1.80;1.40;;;13.40;99.90;;;;;;5072600;28;20773;-75
2023/04/24 11:04:35;;;;;;;2.03;1.83;;;13.20;99.90;;;;;;5072155;28;20201;-74
2023/04/24 11:07:03;;;;;;;2.92;2.20;;;13.30;99.90;;;;;;5072275;28;20288;-74
2023/04/24 11:09:32;;;;;;;2.30;2.10;;;14.30;99.90;;;;;;5072433;28;20193;-74
2023/04/24 11:12:07;;;;;;;4.05;2.80;;;15.40;99.90;;;;;;5072470;28;20196;-74
2023/04/24 11:15:01;;;;;;;3.15;2.22;;;15.10;99.90;;;;;;5072455;28;20231;-74
2023/04/24 11:17:30;;;;;;;2.63;2.40;;;13.30;99.90;;;;;;5072793;28;20203;-74
2023/04/24 11:20:04;;;;;;;3.30;2.43;;;12.40;99.90;;;;;;5072786;28;20288;-74
2023/04/24 11:22:35;;;;;;;3.13;2.40;;;12.90;99.90;;;;;;5072599;28;20375;-74
2023/04/24 11:25:03;;;;;;;4.63;2.30;;;12.80;99.90;;;;;;5072436;28;20611;-74
2023/04/24 11:27:32;;;;;;;3.20;2.30;;;12.70;99.90;;;;;;5072311;28;20193;-74
2023/04/24 11:30:02;;;;;;;2.20;1.97;;;13.10;99.90;;;;;;5072210;28;20314;-74
2023/04/24 11:32:31;;;;;;;2.27;2.07;;;12.70;99.90;;;;;;5072327;28;20603;-74
2023/04/24 11:34:59;;;;;;;2.13;1.83;;;13.20;99.90;;;;;;5072248;28;20237;-73
2023/04/24 11:37:28;;;;;;;3.17;2.47;;;13.20;99.90;;;;;;5072329;28;20204;-74
2023/04/24 11:39:57;;;;;;;3.60;2.05;;;14.90;99.80;;;;;;5072264;28;20258;-74
2023/04/24 11:42:25;;;;;;;2.20;2.00;;;15.30;98.60;;;;;;5072358;28;20201;-74
2023/04/24 11:44:53;;;;;;;2.90;2.40;;;13.60;99.90;;;;;;5072436;28;20208;-74
2023/04/24 11:47:20;;;;;;;2.83;2.23;;;13.40;99.90;;;;;;5072474;28;20648;-75
2023/04/24 11:49:47;;;;;;;2.97;2.30;;;13.60;99.90;;;;;;5072203;28;20205;-74
2023/04/24 11:52:16;;;;;;;2.83;2.10;;;12.60;99.90;;;;;;5072310;28;20204;-74
2023/04/24 11:54:50;;;;;;;3.13;2.20;;;12.50;99.90;;;;;;5072054;28;20224;-74
2023/04/24 11:57:16;;;;;;;2.83;2.20;;;12.10;99.90;;;;;;5072427;28;20251;-74
2023/04/24 11:59:43;;;;;;;3.83;2.07;;;11.80;99.90;;;;;;5075991;28;20200;-73
2023/04/24 12:02:20;;;;;;;2.37;2.17;;;12.00;99.90;;;;;;5075830;28;20197;-73
2023/04/24 12:04:46;;;;;;;3.80;2.40;;;11.60;99.90;;;;;;5075640;28;20200;-73
2023/04/24 12:07:13;;;;;;;2.50;2.30;;;11.90;99.90;;;;;;5075552;28;20250;-74
2023/04/24 12:09:44;;;;;;;2.67;2.43;;;12.70;99.90;;;;;;5076492;28;20197;-74
2023/04/24 12:12:13;;;;;;;4.67;2.50;;;12.90;99.90;;;;;;5076343;28;20201;-73
2023/04/24 12:14:45;;;;;;;2.93;2.63;;;12.80;99.90;;;;;;5075463;28;20229;-74
2023/04/24 12:17:11;;;;;;;3.20;2.90;;;12.50;99.90;;;;;;5075579;28;20201;-73
2023/04/24 12:19:38;;;;;;;4.20;2.60;;;12.20;99.90;;;;;;5075456;28;20201;-73
2023/04/24 12:22:07;;;;;;;4.03;3.73;;;13.90;99.90;;;;;;5075259;28;20274;-73
2023/04/24 12:24:33;;;;;;;5.00;4.17;;;14.60;99.90;;;;;;5075424;28;20205;-73
2023/04/24 12:27:01;;;;;;;4.63;3.63;;;13.60;99.90;;;;;;5075387;28;20235;-73
2023/04/24 12:29:29;;;;;;;3.47;3.00;;;13.10;99.90;;;;;;5075221;28;20208;-73
2023/04/24 12:31:56;;;;;;;4.70;3.00;;;13.10;99.90;;;;;;5075333;28;20544;-73
2023/04/24 12:34:24;;;;;;;3.20;2.90;;;13.20;99.90;;;;;;5074627;28;20224;-73
2023/04/24 12:36:51;;;;;;;3.73;2.63;;;13.40;99.90;;;;;;5075553;28;20197;-72
2023/04/24 12:39:19;;;;;;;2.60;2.40;;;13.20;99.90;;;;;;5075193;28;20205;-73
2023/04/24 12:41:56;;;;;;;3.10;2.43;;;12.90;99.90;;;;;;5075051;28;20245;-73
2023/04/24 12:44:31;;;;;;;3.07;2.60;;;12.90;99.90;;;;;;5075111;28;20242;-74
2023/04/24 12:46:58;;;;;;;3.00;2.70;;;13.10;99.90;;;;;;5074687;28;20200;-73
2023/04/24 12:49:25;;;;;;;3.87;2.60;;;12.80;99.90;;;;;;5075226;28;20197;-73
2023/04/24 12:51:52;;;;;;;3.27;2.93;;;12.80;99.90;;;;;;5074969;28;20220;-73
2023/04/24 12:54:18;;;;;;;3.60;3.30;;;12.10;99.90;;;;;;5074712;28;20224;-73